Saint Helens, OR (97051)

2:56 AM PDT on May 28, 2015 (GMT -0700)
Arbor Hill, Sykes Rd. | | Change Station
CLOSE
Current Station
Personal Weather Station
Location: St. Helens, OR
Elevation: 200 ft
Nearby Weather Stations

Elev 200 ft 45.85 °N, 122.85 °W | Updated 1 minute ago

Partly Cloudy
Partly Cloudy
55.1 °F
Feels Like 55.1 °F
N
0.0
Wind Variable Wind from WNW
Gusts 1.0 mph

Today
High -- | Low -- °F
--% Chance of Precip.
Yesterday
High -- | Low -- °F
Precip. -- in
5:27 AM 8:50 PM
Waxing Gibbous, 74% visible
Pressure 30.02 in
Visibility 10.0 miles
Clouds Clear
Dew Point 50 °F
Humidity 84%
Rainfall 0.00 in
Snow Depth Not available.
UV 0 out of 12
Pollen 7.60 out of 12
Air Quality Not available.
Flu Activity No Activity
METAR KSPB 280853Z AUTO 05004KT 10SM CLR 13/10 A3002 RMK AO2 SLP165 T01330100 51002

More Conditions Fewer Conditions

Pressure 30.02 in
Visibility 10.0 miles
Clouds Clear
Dew Point 50 °F
Humidity 84%
Rainfall 0.00 in
Snow Depth Not available.
UV 0 out of 12
Pollen 7.60 out of 12
Air Quality Not available.
Flu Activity No Activity
METAR KSPB 280853Z AUTO 05004KT 10SM CLR 13/10 A3002 RMK AO2 SLP165 T01330100 51002

More Conditions Fewer Conditions

10-Day Weather Forecast

Almanac

Astronomy

May. 28, 2015 Rise Set
Actual Time
Civil Twilight
Nautical Twilight
Astronomical Twilight
Moon
Length of Visible Light
Length of Day
Tomorrow will be .
, % of the Moon is Illuminated

Today's Extremes

State Highs State Lows

Community

WunderPhotos

Upload Photos

1,824,935 photos uploaded!

WunderBlogs® & News

Nearby

Air Quality

  Air Quality AQ Index Pollutant
Not available.

Snow Depth

Station Depth Elevation

Earthquake Activity

City Distance Mag. Time & Date
Minimum magnitude displayed is 2.5.

Coastal Water Temperatures

Place Temperature

Stations

Nearby Weather Stations

Station Location Temp. Windchill Dew Point Humidity Wind Precip. Elev Updated Type